sensor_id;sensor_type;location;lat;lon;timestamp;pressure;altitude;pressure_sealevel;temperature
9985;BMP180;16737;50.932;6.780;2024-02-26T00:01:19;98410.00;;;11.80
9985;BMP180;16737;50.932;6.780;2024-02-26T00:03:46;98411.00;;;11.80
9985;BMP180;16737;50.932;6.780;2024-02-26T00:06:14;98413.00;;;11.80
9985;BMP180;16737;50.932;6.780;2024-02-26T00:08:41;98413.00;;;11.80
9985;BMP180;16737;50.932;6.780;2024-02-26T00:11:08;98407.00;;;11.70
9985;BMP180;16737;50.932;6.780;2024-02-26T00:13:35;98398.00;;;11.70
9985;BMP180;16737;50.932;6.780;2024-02-26T00:16:04;98392.00;;;11.70
9985;BMP180;16737;50.932;6.780;2024-02-26T00:18:32;98403.00;;;11.70
9985;BMP180;16737;50.932;6.780;2024-02-26T00:20:59;98399.00;;;11.70
9985;BMP180;16737;50.932;6.780;2024-02-26T00:23:26;98392.00;;;11.70
9985;BMP180;16737;50.932;6.780;2024-02-26T00:25:53;98390.00;;;11.70
9985;BMP180;16737;50.932;6.780;2024-02-26T00:28:21;98386.00;;;11.70
9985;BMP180;16737;50.932;6.780;2024-02-26T00:30:48;98379.00;;;11.70
9985;BMP180;16737;50.932;6.780;2024-02-26T00:33:17;98368.00;;;11.70
9985;BMP180;16737;50.932;6.780;2024-02-26T00:35:44;98385.00;;;11.70
9985;BMP180;16737;50.932;6.780;2024-02-26T00:38:11;98386.00;;;11.70
9985;BMP180;16737;50.932;6.780;2024-02-26T00:40:38;98385.00;;;11.70
9985;BMP180;16737;50.932;6.780;2024-02-26T00:43:06;98378.00;;;11.70
9985;BMP180;16737;50.932;6.780;2024-02-26T00:45:33;98379.00;;;11.70
9985;BMP180;16737;50.932;6.780;2024-02-26T00:48:00;98374.00;;;11.70
9985;BMP180;16737;50.932;6.780;2024-02-26T00:50:32;98376.00;;;11.60
9985;BMP180;16737;50.932;6.780;2024-02-26T00:52:59;98381.00;;;11.60
9985;BMP180;16737;50.932;6.780;2024-02-26T00:55:26;98381.00;;;11.60
9985;BMP180;16737;50.932;6.780;2024-02-26T00:57:53;98378.00;;;11.50
9985;BMP180;16737;50.932;6.780;2024-02-26T01:00:20;98382.00;;;11.60
9985;BMP180;16737;50.932;6.780;2024-02-26T01:02:47;98385.00;;;11.50
9985;BMP180;16737;50.932;6.780;2024-02-26T01:05:14;98382.00;;;11.60
9985;BMP180;16737;50.932;6.780;2024-02-26T01:07:43;98378.00;;;11.60
9985;BMP180;16737;50.932;6.780;2024-02-26T01:10:10;98380.00;;;11.50
9985;BMP180;16737;50.932;6.780;2024-02-26T01:12:37;98365.00;;;11.60
9985;BMP180;16737;50.932;6.780;2024-02-26T01:15:05;98373.00;;;11.60
9985;BMP180;16737;50.932;6.780;2024-02-26T01:17:33;98384.00;;;11.60
9985;BMP180;16737;50.932;6.780;2024-02-26T01:20:01;98382.00;;;11.50
9985;BMP180;16737;50.932;6.780;2024-02-26T01:22:28;98384.00;;;11.50
9985;BMP180;16737;50.932;6.780;2024-02-26T01:24:56;98377.00;;;11.50
9985;BMP180;16737;50.932;6.780;2024-02-26T01:27:24;98377.00;;;11.50
9985;BMP180;16737;50.932;6.780;2024-02-26T01:29:52;98383.00;;;11.50
9985;BMP180;16737;50.932;6.780;2024-02-26T01:32:19;98385.00;;;11.50
9985;BMP180;16737;50.932;6.780;2024-02-26T01:34:46;98376.00;;;11.50
9985;BMP180;16737;50.932;6.780;2024-02-26T01:37:13;98365.00;;;11.50
9985;BMP180;16737;50.932;6.780;2024-02-26T01:39:40;98369.00;;;11.50
9985;BMP180;16737;50.932;6.780;2024-02-26T01:42:09;98377.00;;;11.60
9985;BMP180;16737;50.932;6.780;2024-02-26T01:44:36;98359.00;;;11.60
9985;BMP180;16737;50.932;6.780;2024-02-26T01:47:05;98353.00;;;11.60
9985;BMP180;16737;50.932;6.780;2024-02-26T01:49:35;98368.00;;;11.60
9985;BMP180;16737;50.932;6.780;2024-02-26T01:52:04;98357.00;;;11.60
9985;BMP180;16737;50.932;6.780;2024-02-26T01:54:37;98341.00;;;11.60
9985;BMP180;16737;50.932;6.780;2024-02-26T01:57:06;98356.00;;;11.60
9985;BMP180;16737;50.932;6.780;2024-02-26T01:59:35;98363.00;;;11.60
9985;BMP180;16737;50.932;6.780;2024-02-26T02:02:06;98358.00;;;11.70
9985;BMP180;16737;50.932;6.780;2024-02-26T02:04:35;98363.00;;;11.70
9985;BMP180;16737;50.932;6.780;2024-02-26T02:07:02;98364.00;;;11.70
9985;BMP180;16737;50.932;6.780;2024-02-26T02:09:30;98363.00;;;11.70
9985;BMP180;16737;50.932;6.780;2024-02-26T02:11:58;98360.00;;;11.70
9985;BMP180;16737;50.932;6.780;2024-02-26T02:14:26;98363.00;;;11.80
9985;BMP180;16737;50.932;6.780;2024-02-26T02:16:54;98363.00;;;11.70
9985;BMP180;16737;50.932;6.780;2024-02-26T02:19:21;98361.00;;;11.70
9985;BMP180;16737;50.932;6.780;2024-02-26T02:21:49;98364.00;;;11.70
9985;BMP180;16737;50.932;6.780;2024-02-26T02:24:16;98359.00;;;11.70
9985;BMP180;16737;50.932;6.780;2024-02-26T02:26:44;98363.00;;;11.80
9985;BMP180;16737;50.932;6.780;2024-02-26T02:29:12;98359.00;;;11.80
9985;BMP180;16737;50.932;6.780;2024-02-26T02:31:40;98362.00;;;11.80
9985;BMP180;16737;50.932;6.780;2024-02-26T02:34:09;98337.00;;;11.70
9985;BMP180;16737;50.932;6.780;2024-02-26T02:36:51;98353.00;;;11.70
9985;BMP180;16737;50.932;6.780;2024-02-26T02:39:18;98354.00;;;11.70
9985;BMP180;16737;50.932;6.780;2024-02-26T02:41:45;98363.00;;;11.70
9985;BMP180;16737;50.932;6.780;2024-02-26T02:44:12;98354.00;;;11.70
9985;BMP180;16737;50.932;6.780;2024-02-26T02:46:39;98353.00;;;11.70
9985;BMP180;16737;50.932;6.780;2024-02-26T02:49:08;98352.00;;;11.70
9985;BMP180;16737;50.932;6.780;2024-02-26T02:51:36;98353.00;;;11.70
9985;BMP180;16737;50.932;6.780;2024-02-26T02:54:05;98358.00;;;11.70
9985;BMP180;16737;50.932;6.780;2024-02-26T02:56:32;98349.00;;;11.70
9985;BMP180;16737;50.932;6.780;2024-02-26T02:58:59;98346.00;;;11.70
9985;BMP180;16737;50.932;6.780;2024-02-26T03:01:26;98351.00;;;11.70
9985;BMP180;16737;50.932;6.780;2024-02-26T03:03:53;98349.00;;;11.70
9985;BMP180;16737;50.932;6.780;2024-02-26T03:06:20;98344.00;;;11.70
9985;BMP180;16737;50.932;6.780;2024-02-26T03:08:47;98353.00;;;11.70
9985;BMP180;16737;50.932;6.780;2024-02-26T03:11:16;98356.00;;;11.70
9985;BMP180;16737;50.932;6.780;2024-02-26T03:13:43;98348.00;;;11.70
9985;BMP180;16737;50.932;6.780;2024-02-26T03:16:10;98362.00;;;11.70
9985;BMP180;16737;50.932;6.780;2024-02-26T03:18:39;98352.00;;;11.70
9985;BMP180;16737;50.932;6.780;2024-02-26T03:21:06;98350.00;;;11.70
9985;BMP180;16737;50.932;6.780;2024-02-26T03:23:34;98352.00;;;11.70
9985;BMP180;16737;50.932;6.780;2024-02-26T03:26:03;98349.00;;;11.70
9985;BMP180;16737;50.932;6.780;2024-02-26T03:28:31;98345.00;;;11.60
9985;BMP180;16737;50.932;6.780;2024-02-26T03:30:59;98345.00;;;11.60
9985;BMP180;16737;50.932;6.780;2024-02-26T03:33:26;98341.00;;;11.60
9985;BMP180;16737;50.932;6.780;2024-02-26T03:35:53;98345.00;;;11.60
9985;BMP180;16737;50.932;6.780;2024-02-26T03:38:20;98354.00;;;11.60
9985;BMP180;16737;50.932;6.780;2024-02-26T03:40:47;98348.00;;;11.60
9985;BMP180;16737;50.932;6.780;2024-02-26T03:43:14;98342.00;;;11.60
9985;BMP180;16737;50.932;6.780;2024-02-26T03:45:42;98341.00;;;11.60
9985;BMP180;16737;50.932;6.780;2024-02-26T03:48:09;98330.00;;;11.60
9985;BMP180;16737;50.932;6.780;2024-02-26T03:50:36;98353.00;;;11.70
9985;BMP180;16737;50.932;6.780;2024-02-26T03:53:04;98349.00;;;11.70
9985;BMP180;16737;50.932;6.780;2024-02-26T03:55:33;98351.00;;;11.70
9985;BMP180;16737;50.932;6.780;2024-02-26T03:58:00;98351.00;;;11.70
9985;BMP180;16737;50.932;6.780;2024-02-26T04:00:29;98362.00;;;11.70
9985;BMP180;16737;50.932;6.780;2024-02-26T04:02:57;98371.00;;;11.70
9985;BMP180;16737;50.932;6.780;2024-02-26T04:05:24;98367.00;;;11.70
9985;BMP180;16737;50.932;6.780;2024-02-26T04:07:51;98362.00;;;11.70
9985;BMP180;16737;50.932;6.780;2024-02-26T04:10:18;98381.00;;;11.60
9985;BMP180;16737;50.932;6.780;2024-02-26T04:12:45;98372.00;;;11.60
9985;BMP180;16737;50.932;6.780;2024-02-26T04:15:12;98369.00;;;11.50
9985;BMP180;16737;50.932;6.780;2024-02-26T04:17:41;98376.00;;;11.50
9985;BMP180;16737;50.932;6.780;2024-02-26T04:20:14;98379.00;;;11.40
9985;BMP180;16737;50.932;6.780;2024-02-26T04:22:42;98376.00;;;11.50
9985;BMP180;16737;50.932;6.780;2024-02-26T04:25:10;98377.00;;;11.40
9985;BMP180;16737;50.932;6.780;2024-02-26T04:27:37;98387.00;;;11.40
9985;BMP180;16737;50.932;6.780;2024-02-26T04:30:05;98380.00;;;11.40
9985;BMP180;16737;50.932;6.780;2024-02-26T04:32:33;98378.00;;;11.50
9985;BMP180;16737;50.932;6.780;2024-02-26T04:35:00;98385.00;;;11.50
9985;BMP180;16737;50.932;6.780;2024-02-26T04:37:28;98388.00;;;11.50
9985;BMP180;16737;50.932;6.780;2024-02-26T04:39:58;98368.00;;;11.40
9985;BMP180;16737;50.932;6.780;2024-02-26T04:42:25;98371.00;;;11.40
9985;BMP180;16737;50.932;6.780;2024-02-26T04:44:52;98369.00;;;11.40
9985;BMP180;16737;50.932;6.780;2024-02-26T04:47:19;98387.00;;;11.40
9985;BMP180;16737;50.932;6.780;2024-02-26T04:49:47;98385.00;;;11.30
9985;BMP180;16737;50.932;6.780;2024-02-26T04:52:15;98387.00;;;11.30
9985;BMP180;16737;50.932;6.780;2024-02-26T04:54:42;98393.00;;;11.30
9985;BMP180;16737;50.932;6.780;2024-02-26T04:57:09;98388.00;;;11.30
9985;BMP180;16737;50.932;6.780;2024-02-26T04:59:36;98394.00;;;11.30
9985;BMP180;16737;50.932;6.780;2024-02-26T05:02:03;98391.00;;;11.30
9985;BMP180;16737;50.932;6.780;2024-02-26T05:04:31;98387.00;;;11.20
9985;BMP180;16737;50.932;6.780;2024-02-26T05:06:58;98372.00;;;11.20
9985;BMP180;16737;50.932;6.780;2024-02-26T05:09:25;98389.00;;;11.20
9985;BMP180;16737;50.932;6.780;2024-02-26T05:11:53;98385.00;;;11.20
9985;BMP180;16737;50.932;6.780;2024-02-26T05:14:20;98382.00;;;11.20
9985;BMP180;16737;50.932;6.780;2024-02-26T05:16:48;98388.00;;;11.20
9985;BMP180;16737;50.932;6.780;2024-02-26T05:19:15;98387.00;;;11.20
9985;BMP180;16737;50.932;6.780;2024-02-26T05:21:42;98389.00;;;11.20
9985;BMP180;16737;50.932;6.780;2024-02-26T05:24:10;98388.00;;;11.20
9985;BMP180;16737;50.932;6.780;2024-02-26T05:26:38;98382.00;;;11.20
9985;BMP180;16737;50.932;6.780;2024-02-26T05:29:06;98395.00;;;11.10
9985;BMP180;16737;50.932;6.780;2024-02-26T05:31:33;98397.00;;;11.10
9985;BMP180;16737;50.932;6.780;2024-02-26T05:34:00;98403.00;;;11.10
9985;BMP180;16737;50.932;6.780;2024-02-26T05:36:27;98396.00;;;11.10
9985;BMP180;16737;50.932;6.780;2024-02-26T05:38:59;98399.00;;;11.10
9985;BMP180;16737;50.932;6.780;2024-02-26T05:41:26;98395.00;;;11.10
9985;BMP180;16737;50.932;6.780;2024-02-26T05:43:53;98390.00;;;11.10
9985;BMP180;16737;50.932;6.780;2024-02-26T05:46:22;98392.00;;;11.00
9985;BMP180;16737;50.932;6.780;2024-02-26T05:48:51;98394.00;;;11.00
9985;BMP180;16737;50.932;6.780;2024-02-26T05:51:19;98406.00;;;11.10
9985;BMP180;16737;50.932;6.780;2024-02-26T05:53:46;98411.00;;;11.10
9985;BMP180;16737;50.932;6.780;2024-02-26T05:56:20;98412.00;;;11.10
9985;BMP180;16737;50.932;6.780;2024-02-26T05:58:47;98389.00;;;11.10
9985;BMP180;16737;50.932;6.780;2024-02-26T06:01:16;98410.00;;;11.10
9985;BMP180;16737;50.932;6.780;2024-02-26T06:03:44;98418.00;;;11.10
9985;BMP180;16737;50.932;6.780;2024-02-26T06:06:12;98419.00;;;11.10
9985;BMP180;16737;50.932;6.780;2024-02-26T06:08:40;98421.00;;;11.00
9985;BMP180;16737;50.932;6.780;2024-02-26T06:11:07;98425.00;;;11.10
9985;BMP180;16737;50.932;6.780;2024-02-26T06:13:35;98426.00;;;11.10
9985;BMP180;16737;50.932;6.780;2024-02-26T06:16:02;98438.00;;;11.10
9985;BMP180;16737;50.932;6.780;2024-02-26T06:18:30;98438.00;;;11.10
9985;BMP180;16737;50.932;6.780;2024-02-26T06:20:58;98431.00;;;11.10
9985;BMP180;16737;50.932;6.780;2024-02-26T06:23:26;98444.00;;;11.10
9985;BMP180;16737;50.932;6.780;2024-02-26T06:25:53;98438.00;;;11.00
9985;BMP180;16737;50.932;6.780;2024-02-26T06:28:20;98442.00;;;11.10
9985;BMP180;16737;50.932;6.780;2024-02-26T06:30:50;98460.00;;;11.10
9985;BMP180;16737;50.932;6.780;2024-02-26T06:33:18;98451.00;;;11.10
9985;BMP180;16737;50.932;6.780;2024-02-26T06:35:45;98453.00;;;11.10
9985;BMP180;16737;50.932;6.780;2024-02-26T06:38:13;98462.00;;;11.10
9985;BMP180;16737;50.932;6.780;2024-02-26T06:40:41;98461.00;;;11.00
9985;BMP180;16737;50.932;6.780;2024-02-26T06:43:08;98463.00;;;11.10
9985;BMP180;16737;50.932;6.780;2024-02-26T06:45:35;98469.00;;;11.00
9985;BMP180;16737;50.932;6.780;2024-02-26T06:48:02;98475.00;;;11.00
9985;BMP180;16737;50.932;6.780;2024-02-26T06:50:29;98471.00;;;11.00
9985;BMP180;16737;50.932;6.780;2024-02-26T06:52:56;98477.00;;;11.00
9985;BMP180;16737;50.932;6.780;2024-02-26T06:55:24;98473.00;;;11.00
9985;BMP180;16737;50.932;6.780;2024-02-26T06:57:52;98480.00;;;11.00
9985;BMP180;16737;50.932;6.780;2024-02-26T07:00:19;98485.00;;;11.00
9985;BMP180;16737;50.932;6.780;2024-02-26T07:02:46;98484.00;;;11.00
9985;BMP180;16737;50.932;6.780;2024-02-26T07:05:13;98485.00;;;11.00
9985;BMP180;16737;50.932;6.780;2024-02-26T07:07:40;98482.00;;;11.00
9985;BMP180;16737;50.932;6.780;2024-02-26T07:10:08;98494.00;;;10.90
9985;BMP180;16737;50.932;6.780;2024-02-26T07:12:36;98491.00;;;10.90
9985;BMP180;16737;50.932;6.780;2024-02-26T07:15:05;98491.00;;;10.90
9985;BMP180;16737;50.932;6.780;2024-02-26T07:17:33;98496.00;;;10.90
9985;BMP180;16737;50.932;6.780;2024-02-26T07:20:01;98501.00;;;10.90
9985;BMP180;16737;50.932;6.780;2024-02-26T07:22:30;98491.00;;;10.90
9985;BMP180;16737;50.932;6.780;2024-02-26T07:24:57;98503.00;;;10.90
9985;BMP180;16737;50.932;6.780;2024-02-26T07:27:24;98501.00;;;10.90
9985;BMP180;16737;50.932;6.780;2024-02-26T07:29:52;98503.00;;;10.90
9985;BMP180;16737;50.932;6.780;2024-02-26T07:32:19;98508.00;;;10.90
9985;BMP180;16737;50.932;6.780;2024-02-26T07:34:46;98508.00;;;10.90
9985;BMP180;16737;50.932;6.780;2024-02-26T07:37:13;98515.00;;;10.90
9985;BMP180;16737;50.932;6.780;2024-02-26T07:39:40;98504.00;;;10.90
9985;BMP180;16737;50.932;6.780;2024-02-26T07:42:07;98515.00;;;10.90
9985;BMP180;16737;50.932;6.780;2024-02-26T07:44:35;98491.00;;;10.90
9985;BMP180;16737;50.932;6.780;2024-02-26T07:47:04;98511.00;;;10.90
9985;BMP180;16737;50.932;6.780;2024-02-26T07:49:31;98487.00;;;10.90
9985;BMP180;16737;50.932;6.780;2024-02-26T07:51:58;98519.00;;;10.90
9985;BMP180;16737;50.932;6.780;2024-02-26T07:54:25;98521.00;;;10.90
9985;BMP180;16737;50.932;6.780;2024-02-26T07:56:52;98515.00;;;10.90
9985;BMP180;16737;50.932;6.780;2024-02-26T07:59:19;98500.00;;;10.90
9985;BMP180;16737;50.932;6.780;2024-02-26T08:01:50;98534.00;;;10.90
9985;BMP180;16737;50.932;6.780;2024-02-26T08:04:19;98534.00;;;10.90
9985;BMP180;16737;50.932;6.780;2024-02-26T08:06:46;98531.00;;;10.90
9985;BMP180;16737;50.932;6.780;2024-02-26T08:09:13;98544.00;;;10.90
9985;BMP180;16737;50.932;6.780;2024-02-26T08:11:40;98542.00;;;10.90
9985;BMP180;16737;50.932;6.780;2024-02-26T08:14:07;98546.00;;;10.90
9985;BMP180;16737;50.932;6.780;2024-02-26T08:16:34;98541.00;;;10.90
9985;BMP180;16737;50.932;6.780;2024-02-26T08:19:01;98548.00;;;11.00
9985;BMP180;16737;50.932;6.780;2024-02-26T08:21:29;98542.00;;;10.90
9985;BMP180;16737;50.932;6.780;2024-02-26T08:23:56;98559.00;;;10.90
9985;BMP180;16737;50.932;6.780;2024-02-26T08:26:23;98565.00;;;10.90
9985;BMP180;16737;50.932;6.780;2024-02-26T08:28:50;98564.00;;;10.90
9985;BMP180;16737;50.932;6.780;2024-02-26T08:31:18;98563.00;;;10.90
9985;BMP180;16737;50.932;6.780;2024-02-26T08:33:45;98576.00;;;10.90
9985;BMP180;16737;50.932;6.780;2024-02-26T08:36:12;98584.00;;;10.90
9985;BMP180;16737;50.932;6.780;2024-02-26T08:38:40;98569.00;;;11.00
9985;BMP180;16737;50.932;6.780;2024-02-26T08:41:07;98575.00;;;11.00
9985;BMP180;16737;50.932;6.780;2024-02-26T08:43:34;98569.00;;;11.00
9985;BMP180;16737;50.932;6.780;2024-02-26T08:46:01;98566.00;;;11.00
9985;BMP180;16737;50.932;6.780;2024-02-26T08:48:29;98585.00;;;11.00
9985;BMP180;16737;50.932;6.780;2024-02-26T08:50:56;98578.00;;;11.00
9985;BMP180;16737;50.932;6.780;2024-02-26T08:53:23;98585.00;;;11.00
9985;BMP180;16737;50.932;6.780;2024-02-26T08:55:53;98569.00;;;11.00
9985;BMP180;16737;50.932;6.780;2024-02-26T08:58:20;98597.00;;;11.00
9985;BMP180;16737;50.932;6.780;2024-02-26T09:00:47;98596.00;;;11.00
9985;BMP180;16737;50.932;6.780;2024-02-26T09:03:15;98581.00;;;11.00
9985;BMP180;16737;50.932;6.780;2024-02-26T09:05:42;98605.00;;;11.00
9985;BMP180;16737;50.932;6.780;2024-02-26T09:08:09;98607.00;;;11.00
9985;BMP180;16737;50.932;6.780;2024-02-26T09:10:36;98611.00;;;11.00
9985;BMP180;16737;50.932;6.780;2024-02-26T09:13:04;98608.00;;;11.00
9985;BMP180;16737;50.932;6.780;2024-02-26T09:15:31;98616.00;;;11.00
9985;BMP180;16737;50.932;6.780;2024-02-26T09:17:58;98625.00;;;11.00
9985;BMP180;16737;50.932;6.780;2024-02-26T09:20:25;98626.00;;;11.00
9985;BMP180;16737;50.932;6.780;2024-02-26T09:22:53;98632.00;;;10.90
9985;BMP180;16737;50.932;6.780;2024-02-26T09:25:20;98639.00;;;10.90
9985;BMP180;16737;50.932;6.780;2024-02-26T09:27:47;98625.00;;;10.90
9985;BMP180;16737;50.932;6.780;2024-02-26T09:30:16;98646.00;;;10.90
9985;BMP180;16737;50.932;6.780;2024-02-26T09:32:46;98646.00;;;10.80
9985;BMP180;16737;50.932;6.780;2024-02-26T09:35:14;98654.00;;;10.90
9985;BMP180;16737;50.932;6.780;2024-02-26T09:37:41;98635.00;;;10.80
9985;BMP180;16737;50.932;6.780;2024-02-26T09:40:11;98656.00;;;10.80
9985;BMP180;16737;50.932;6.780;2024-02-26T09:42:43;98657.00;;;10.80
9985;BMP180;16737;50.932;6.780;2024-02-26T09:45:18;98661.00;;;10.90
9985;BMP180;16737;50.932;6.780;2024-02-26T09:47:48;98663.00;;;10.90
9985;BMP180;16737;50.932;6.780;2024-02-26T09:50:17;98668.00;;;10.90
9985;BMP180;16737;50.932;6.780;2024-02-26T09:52:49;98658.00;;;10.90
9985;BMP180;16737;50.932;6.780;2024-02-26T09:55:16;98664.00;;;10.90
9985;BMP180;16737;50.932;6.780;2024-02-26T09:57:46;98670.00;;;11.00
9985;BMP180;16737;50.932;6.780;2024-02-26T10:00:20;98657.00;;;10.90
9985;BMP180;16737;50.932;6.780;2024-02-26T10:02:48;98673.00;;;11.00
9985;BMP180;16737;50.932;6.780;2024-02-26T10:05:18;98670.00;;;11.00
9985;BMP180;16737;50.932;6.780;2024-02-26T10:07:45;98683.00;;;11.10
9985;BMP180;16737;50.932;6.780;2024-02-26T10:10:13;98670.00;;;11.10
9985;BMP180;16737;50.932;6.780;2024-02-26T10:12:40;98683.00;;;11.10
9985;BMP180;16737;50.932;6.780;2024-02-26T10:15:09;98694.00;;;11.10
9985;BMP180;16737;50.932;6.780;2024-02-26T10:17:38;98697.00;;;11.10
9985;BMP180;16737;50.932;6.780;2024-02-26T10:20:12;98694.00;;;11.10
9985;BMP180;16737;50.932;6.780;2024-02-26T10:22:41;98696.00;;;11.10
9985;BMP180;16737;50.932;6.780;2024-02-26T10:25:09;98692.00;;;11.20
9985;BMP180;16737;50.932;6.780;2024-02-26T10:27:36;98706.00;;;11.20
9985;BMP180;16737;50.932;6.780;2024-02-26T10:30:04;98713.00;;;11.20
9985;BMP180;16737;50.932;6.780;2024-02-26T10:32:32;98716.00;;;11.20
9985;BMP180;16737;50.932;6.780;2024-02-26T10:35:00;98712.00;;;11.30
9985;BMP180;16737;50.932;6.780;2024-02-26T10:37:28;98716.00;;;11.30
9985;BMP180;16737;50.932;6.780;2024-02-26T10:39:56;98704.00;;;11.40
9985;BMP180;16737;50.932;6.780;2024-02-26T10:42:23;98726.00;;;11.40
9985;BMP180;16737;50.932;6.780;2024-02-26T10:44:50;98724.00;;;11.40
9985;BMP180;16737;50.932;6.780;2024-02-26T10:47:17;98722.00;;;11.50
9985;BMP180;16737;50.932;6.780;2024-02-26T10:49:47;98729.00;;;11.50
9985;BMP180;16737;50.932;6.780;2024-02-26T10:52:18;98732.00;;;11.50
9985;BMP180;16737;50.932;6.780;2024-02-26T10:54:48;98734.00;;;11.60
9985;BMP180;16737;50.932;6.780;2024-02-26T10:57:18;98737.00;;;11.60
9985;BMP180;16737;50.932;6.780;2024-02-26T10:59:48;98700.00;;;11.60
9985;BMP180;16737;50.932;6.780;2024-02-26T11:02:16;98738.00;;;11.60
9985;BMP180;16737;50.932;6.780;2024-02-26T11:04:43;98735.00;;;11.70
9985;BMP180;16737;50.932;6.780;2024-02-26T11:07:11;98742.00;;;11.70
9985;BMP180;16737;50.932;6.780;2024-02-26T11:09:41;98763.00;;;11.70
9985;BMP180;16737;50.932;6.780;2024-02-26T11:12:13;98757.00;;;11.70
9985;BMP180;16737;50.932;6.780;2024-02-26T11:14:42;98760.00;;;11.70
9985;BMP180;16737;50.932;6.780;2024-02-26T11:17:12;98763.00;;;11.70
9985;BMP180;16737;50.932;6.780;2024-02-26T11:19:43;98758.00;;;11.70
9985;BMP180;16737;50.932;6.780;2024-02-26T11:22:11;98758.00;;;11.80
9985;BMP180;16737;50.932;6.780;2024-02-26T11:24:39;98764.00;;;11.80
9985;BMP180;16737;50.932;6.780;2024-02-26T11:27:11;98763.00;;;11.80
9985;BMP180;16737;50.932;6.780;2024-02-26T11:29:44;98763.00;;;11.80
9985;BMP180;16737;50.932;6.780;2024-02-26T11:32:14;98769.00;;;11.80
9985;BMP180;16737;50.932;6.780;2024-02-26T11:34:42;98779.00;;;11.80
9985;BMP180;16737;50.932;6.780;2024-02-26T11:37:10;98776.00;;;11.80
9985;BMP180;16737;50.932;6.780;2024-02-26T11:39:41;98765.00;;;11.80
9985;BMP180;16737;50.932;6.780;2024-02-26T11:42:13;98775.00;;;11.80
9985;BMP180;16737;50.932;6.780;2024-02-26T11:44:41;98780.00;;;11.80
9985;BMP180;16737;50.932;6.780;2024-02-26T11:47:12;98779.00;;;11.80
9985;BMP180;16737;50.932;6.780;2024-02-26T11:49:40;98778.00;;;11.90
9985;BMP180;16737;50.932;6.780;2024-02-26T11:52:09;98778.00;;;11.90
9985;BMP180;16737;50.932;6.780;2024-02-26T11:54:56;98775.00;;;11.80
9985;BMP180;16737;50.932;6.780;2024-02-26T11:57:29;98779.00;;;11.90
9985;BMP180;16737;50.932;6.780;2024-02-26T12:00:13;98747.00;;;11.90
9985;BMP180;16737;50.932;6.780;2024-02-26T12:02:44;98769.00;;;11.90
9985;BMP180;16737;50.932;6.780;2024-02-26T12:05:12;98781.00;;;11.90
9985;BMP180;16737;50.932;6.780;2024-02-26T12:07:45;98781.00;;;11.90
9985;BMP180;16737;50.932;6.780;2024-02-26T12:10:24;98792.00;;;11.90
9985;BMP180;16737;50.932;6.780;2024-02-26T12:13:11;98791.00;;;11.90
9985;BMP180;16737;50.932;6.780;2024-02-26T12:15:41;98787.00;;;11.90
9985;BMP180;16737;50.932;6.780;2024-02-26T12:18:12;98786.00;;;11.90
9985;BMP180;16737;50.932;6.780;2024-02-26T12:20:42;98802.00;;;11.90
9985;BMP180;16737;50.932;6.780;2024-02-26T12:23:15;98814.00;;;11.90
9985;BMP180;16737;50.932;6.780;2024-02-26T12:25:44;98809.00;;;11.90
9985;BMP180;16737;50.932;6.780;2024-02-26T12:28:14;98805.00;;;11.90
9985;BMP180;16737;50.932;6.780;2024-02-26T12:30:41;98819.00;;;11.90
9985;BMP180;16737;50.932;6.780;2024-02-26T12:33:08;98829.00;;;11.90
9985;BMP180;16737;50.932;6.780;2024-02-26T12:35:36;98835.00;;;11.90
9985;BMP180;16737;50.932;6.780;2024-02-26T12:38:04;98830.00;;;11.90
9985;BMP180;16737;50.932;6.780;2024-02-26T12:40:31;98841.00;;;11.80
9985;BMP180;16737;50.932;6.780;2024-02-26T12:43:00;98844.00;;;11.80
9985;BMP180;16737;50.932;6.780;2024-02-26T12:45:28;98852.00;;;11.80
9985;BMP180;16737;50.932;6.780;2024-02-26T12:47:55;98858.00;;;11.80
9985;BMP180;16737;50.932;6.780;2024-02-26T12:50:23;98859.00;;;11.80
9985;BMP180;16737;50.932;6.780;2024-02-26T12:52:51;98862.00;;;11.80
9985;BMP180;16737;50.932;6.780;2024-02-26T12:55:21;98843.00;;;11.80
9985;BMP180;16737;50.932;6.780;2024-02-26T12:57:49;98871.00;;;11.80
9985;BMP180;16737;50.932;6.780;2024-02-26T13:00:23;98870.00;;;11.80
9985;BMP180;16737;50.932;6.780;2024-02-26T13:02:51;98879.00;;;11.80
9985;BMP180;16737;50.932;6.780;2024-02-26T13:05:20;98878.00;;;11.90
9985;BMP180;16737;50.932;6.780;2024-02-26T13:07:47;98880.00;;;11.90
9985;BMP180;16737;50.932;6.780;2024-02-26T13:10:15;98884.00;;;11.80
9985;BMP180;16737;50.932;6.780;2024-02-26T13:12:44;98891.00;;;11.90
9985;BMP180;16737;50.932;6.780;2024-02-26T13:15:16;98893.00;;;11.90
9985;BMP180;16737;50.932;6.780;2024-02-26T13:17:45;98894.00;;;11.90
9985;BMP180;16737;50.932;6.780;2024-02-26T13:20:13;98899.00;;;11.90
9985;BMP180;16737;50.932;6.780;2024-02-26T13:22:51;98901.00;;;11.90
9985;BMP180;16737;50.932;6.780;2024-02-26T13:25:20;98916.00;;;11.80
9985;BMP180;16737;50.932;6.780;2024-02-26T13:27:48;98902.00;;;11.80
9985;BMP180;16737;50.932;6.780;2024-02-26T13:30:15;98906.00;;;11.80
9985;BMP180;16737;50.932;6.780;2024-02-26T13:32:43;98908.00;;;11.90
9985;BMP180;16737;50.932;6.780;2024-02-26T13:35:13;98913.00;;;11.90
9985;BMP180;16737;50.932;6.780;2024-02-26T13:37:40;98917.00;;;11.90
9985;BMP180;16737;50.932;6.780;2024-02-26T13:40:09;98921.00;;;11.90
9985;BMP180;16737;50.932;6.780;2024-02-26T13:42:37;98911.00;;;11.90
9985;BMP180;16737;50.932;6.780;2024-02-26T13:45:06;98914.00;;;11.90
9985;BMP180;16737;50.932;6.780;2024-02-26T13:47:33;98917.00;;;11.90
9985;BMP180;16737;50.932;6.780;2024-02-26T13:50:02;98901.00;;;11.90
9985;BMP180;16737;50.932;6.780;2024-02-26T13:52:29;98932.00;;;11.90
9985;BMP180;16737;50.932;6.780;2024-02-26T13:54:58;98912.00;;;11.90
9985;BMP180;16737;50.932;6.780;2024-02-26T13:57:25;98933.00;;;11.90
9985;BMP180;16737;50.932;6.780;2024-02-26T13:59:52;98938.00;;;11.90
9985;BMP180;16737;50.932;6.780;2024-02-26T14:02:20;98939.00;;;11.90
9985;BMP180;16737;50.932;6.780;2024-02-26T14:04:47;98946.00;;;11.90
9985;BMP180;16737;50.932;6.780;2024-02-26T14:07:15;98944.00;;;11.80
9985;BMP180;16737;50.932;6.780;2024-02-26T14:09:43;98945.00;;;11.80
9985;BMP180;16737;50.932;6.780;2024-02-26T14:12:11;98936.00;;;11.80
9985;BMP180;16737;50.932;6.780;2024-02-26T14:14:40;98956.00;;;11.80
9985;BMP180;16737;50.932;6.780;2024-02-26T14:17:08;98932.00;;;11.80
9985;BMP180;16737;50.932;6.780;2024-02-26T14:19:35;98950.00;;;11.80
9985;BMP180;16737;50.932;6.780;2024-02-26T14:22:04;98951.00;;;11.80
9985;BMP180;16737;50.932;6.780;2024-02-26T14:24:32;98953.00;;;11.80
9985;BMP180;16737;50.932;6.780;2024-02-26T14:27:02;98952.00;;;11.80